sensor_id;sensor_type;location;lat;lon;timestamp;temperature;humidity
65034;DHT22;51601;51.356;12.458;2023-02-24T00:04:12;8.20;99.90
65034;DHT22;51601;51.356;12.458;2023-02-24T00:08:56;8.20;99.90
65034;DHT22;51601;51.356;12.458;2023-02-24T00:13:43;8.10;99.90
65034;DHT22;51601;51.356;12.458;2023-02-24T00:18:29;8.10;99.90
65034;DHT22;51601;51.356;12.458;2023-02-24T00:23:15;8.10;99.90
65034;DHT22;51601;51.356;12.458;2023-02-24T00:28:00;8.10;99.90
65034;DHT22;51601;51.356;12.458;2023-02-24T00:32:45;8.10;99.90
65034;DHT22;51601;51.356;12.458;2023-02-24T00:37:30;8.00;99.90
65034;DHT22;51601;51.356;12.458;2023-02-24T00:42:16;8.00;99.90
65034;DHT22;51601;51.356;12.458;2023-02-24T00:47:00;7.90;99.90
65034;DHT22;51601;51.356;12.458;2023-02-24T00:51:49;7.90;99.90
65034;DHT22;51601;51.356;12.458;2023-02-24T00:56:37;7.80;99.90
65034;DHT22;51601;51.356;12.458;2023-02-24T01:01:24;7.80;99.90
65034;DHT22;51601;51.356;12.458;2023-02-24T01:06:10;7.70;99.90
65034;DHT22;51601;51.356;12.458;2023-02-24T01:10:57;7.70;99.90
65034;DHT22;51601;51.356;12.458;2023-02-24T01:15:59;7.70;99.90
65034;DHT22;51601;51.356;12.458;2023-02-24T01:20:44;7.70;99.90
65034;DHT22;51601;51.356;12.458;2023-02-24T01:25:30;7.60;99.90
65034;DHT22;51601;51.356;12.458;2023-02-24T01:30:16;7.60;99.90
65034;DHT22;51601;51.356;12.458;2023-02-24T01:35:00;7.50;99.90
65034;DHT22;51601;51.356;12.458;2023-02-24T01:39:46;7.50;99.90
65034;DHT22;51601;51.356;12.458;2023-02-24T01:50:07;7.40;99.90
65034;DHT22;51601;51.356;12.458;2023-02-24T01:55:00;7.40;99.90
65034;DHT22;51601;51.356;12.458;2023-02-24T01:59:50;7.30;99.90
65034;DHT22;51601;51.356;12.458;2023-02-24T02:04:39;7.30;99.90
65034;DHT22;51601;51.356;12.458;2023-02-24T02:09:26;7.30;99.90
65034;DHT22;51601;51.356;12.458;2023-02-24T02:14:12;7.30;99.90
65034;DHT22;51601;51.356;12.458;2023-02-24T02:19:02;7.30;99.90
65034;DHT22;51601;51.356;12.458;2023-02-24T02:24:13;7.30;99.90
65034;DHT22;51601;51.356;12.458;2023-02-24T02:29:18;7.30;99.90
65034;DHT22;51601;51.356;12.458;2023-02-24T02:34:21;7.20;99.90
65034;DHT22;51601;51.356;12.458;2023-02-24T02:39:15;7.10;99.90
65034;DHT22;51601;51.356;12.458;2023-02-24T02:44:07;6.90;99.90
65034;DHT22;51601;51.356;12.458;2023-02-24T02:48:57;6.80;99.90
65034;DHT22;51601;51.356;12.458;2023-02-24T02:53:49;6.60;99.90
65034;DHT22;51601;51.356;12.458;2023-02-24T02:58:37;6.50;99.90
65034;DHT22;51601;51.356;12.458;2023-02-24T03:03:23;6.40;99.90
65034;DHT22;51601;51.356;12.458;2023-02-24T03:08:12;6.20;99.90
65034;DHT22;51601;51.356;12.458;2023-02-24T03:13:01;6.10;99.90
65034;DHT22;51601;51.356;12.458;2023-02-24T03:17:50;6.00;99.90
65034;DHT22;51601;51.356;12.458;2023-02-24T03:22:41;5.90;99.90
65034;DHT22;51601;51.356;12.458;2023-02-24T03:27:30;5.80;99.90
65034;DHT22;51601;51.356;12.458;2023-02-24T03:32:22;5.80;99.90
65034;DHT22;51601;51.356;12.458;2023-02-24T03:37:09;5.70;99.90
65034;DHT22;51601;51.356;12.458;2023-02-24T03:41:57;5.60;99.90
65034;DHT22;51601;51.356;12.458;2023-02-24T03:46:48;5.60;99.90
65034;DHT22;51601;51.356;12.458;2023-02-24T03:51:35;5.50;99.90
65034;DHT22;51601;51.356;12.458;2023-02-24T03:56:27;5.50;99.90
65034;DHT22;51601;51.356;12.458;2023-02-24T04:01:21;5.40;99.90
65034;DHT22;51601;51.356;12.458;2023-02-24T04:06:12;5.40;99.90
65034;DHT22;51601;51.356;12.458;2023-02-24T04:11:07;5.40;99.90
65034;DHT22;51601;51.356;12.458;2023-02-24T04:16:00;5.40;99.90
65034;DHT22;51601;51.356;12.458;2023-02-24T04:20:46;5.40;99.90
65034;DHT22;51601;51.356;12.458;2023-02-24T04:25:38;5.40;99.90
65034;DHT22;51601;51.356;12.458;2023-02-24T04:30:21;5.40;99.90
65034;DHT22;51601;51.356;12.458;2023-02-24T04:35:13;5.40;99.90
65034;DHT22;51601;51.356;12.458;2023-02-24T04:40:05;5.40;99.90
65034;DHT22;51601;51.356;12.458;2023-02-24T04:44:54;5.40;99.90
65034;DHT22;51601;51.356;12.458;2023-02-24T04:49:42;5.30;99.90
65034;DHT22;51601;51.356;12.458;2023-02-24T04:54:27;5.30;99.90
65034;DHT22;51601;51.356;12.458;2023-02-24T04:59:12;5.30;99.90
65034;DHT22;51601;51.356;12.458;2023-02-24T05:03:56;5.20;99.90
65034;DHT22;51601;51.356;12.458;2023-02-24T05:08:43;5.20;99.90
65034;DHT22;51601;51.356;12.458;2023-02-24T05:13:29;5.20;99.90
65034;DHT22;51601;51.356;12.458;2023-02-24T05:18:15;5.20;99.90
65034;DHT22;51601;51.356;12.458;2023-02-24T05:23:00;5.10;99.90
65034;DHT22;51601;51.356;12.458;2023-02-24T05:27:46;5.00;99.90
65034;DHT22;51601;51.356;12.458;2023-02-24T05:32:30;5.00;99.90
65034;DHT22;51601;51.356;12.458;2023-02-24T05:37:16;5.00;99.90
65034;DHT22;51601;51.356;12.458;2023-02-24T05:42:00;5.00;99.90
65034;DHT22;51601;51.356;12.458;2023-02-24T05:46:51;4.90;99.90
65034;DHT22;51601;51.356;12.458;2023-02-24T05:51:40;4.90;99.90
65034;DHT22;51601;51.356;12.458;2023-02-24T05:56:25;4.90;99.90
65034;DHT22;51601;51.356;12.458;2023-02-24T06:01:10;4.90;99.90
65034;DHT22;51601;51.356;12.458;2023-02-24T06:05:59;4.90;99.90
65034;DHT22;51601;51.356;12.458;2023-02-24T06:10:47;4.80;99.90
65034;DHT22;51601;51.356;12.458;2023-02-24T06:15:33;4.80;99.90
65034;DHT22;51601;51.356;12.458;2023-02-24T06:20:17;4.80;99.90
65034;DHT22;51601;51.356;12.458;2023-02-24T06:25:06;4.80;99.90
65034;DHT22;51601;51.356;12.458;2023-02-24T06:29:52;4.80;99.90
65034;DHT22;51601;51.356;12.458;2023-02-24T06:34:39;4.80;99.90
65034;DHT22;51601;51.356;12.458;2023-02-24T06:39:23;4.80;99.90
65034;DHT22;51601;51.356;12.458;2023-02-24T06:44:10;4.80;99.90
65034;DHT22;51601;51.356;12.458;2023-02-24T06:48:55;4.80;99.90
65034;DHT22;51601;51.356;12.458;2023-02-24T06:53:42;4.80;99.90
65034;DHT22;51601;51.356;12.458;2023-02-24T06:58:26;4.80;99.90
65034;DHT22;51601;51.356;12.458;2023-02-24T07:03:15;4.80;99.90
65034;DHT22;51601;51.356;12.458;2023-02-24T07:08:02;4.90;99.90
65034;DHT22;51601;51.356;12.458;2023-02-24T07:12:47;4.90;99.70
65034;DHT22;51601;51.356;12.458;2023-02-24T07:17:33;4.90;99.50
65034;DHT22;51601;51.356;12.458;2023-02-24T07:22:20;5.00;99.40
65034;DHT22;51601;51.356;12.458;2023-02-24T07:27:11;5.00;99.00
65034;DHT22;51601;51.356;12.458;2023-02-24T07:32:06;5.10;98.70
65034;DHT22;51601;51.356;12.458;2023-02-24T07:36:52;5.10;98.30
65034;DHT22;51601;51.356;12.458;2023-02-24T07:41:39;5.10;97.90
65034;DHT22;51601;51.356;12.458;2023-02-24T07:46:29;5.20;98.00
65034;DHT22;51601;51.356;12.458;2023-02-24T07:51:16;5.30;98.20
65034;DHT22;51601;51.356;12.458;2023-02-24T07:56:06;5.50;97.90
65034;DHT22;51601;51.356;12.458;2023-02-24T08:01:00;5.60;97.30
65034;DHT22;51601;51.356;12.458;2023-02-24T08:05:50;5.60;96.10
65034;DHT22;51601;51.356;12.458;2023-02-24T08:10:43;5.70;95.30
65034;DHT22;51601;51.356;12.458;2023-02-24T08:15:43;5.60;94.10
65034;DHT22;51601;51.356;12.458;2023-02-24T08:20:33;5.60;93.80
65034;DHT22;51601;51.356;12.458;2023-02-24T08:25:34;5.60;93.60
65034;DHT22;51601;51.356;12.458;2023-02-24T08:30:18;5.70;93.60
65034;DHT22;51601;51.356;12.458;2023-02-24T08:35:09;5.80;94.00
65034;DHT22;51601;51.356;12.458;2023-02-24T08:39:59;6.20;95.40
65034;DHT22;51601;51.356;12.458;2023-02-24T08:44:47;6.90;94.40
65034;DHT22;51601;51.356;12.458;2023-02-24T08:49:35;7.50;92.30
65034;DHT22;51601;51.356;12.458;2023-02-24T08:54:22;8.20;90.60
65034;DHT22;51601;51.356;12.458;2023-02-24T08:59:12;8.80;86.40
65034;DHT22;51601;51.356;12.458;2023-02-24T09:04:12;9.20;80.20
65034;DHT22;51601;51.356;12.458;2023-02-24T09:09:01;9.40;78.30
65034;DHT22;51601;51.356;12.458;2023-02-24T09:14:03;9.60;76.70
65034;DHT22;51601;51.356;12.458;2023-02-24T09:18:54;9.40;72.90
65034;DHT22;51601;51.356;12.458;2023-02-24T09:23:52;8.80;71.80
65034;DHT22;51601;51.356;12.458;2023-02-24T09:28:36;8.30;72.50
65034;DHT22;51601;51.356;12.458;2023-02-24T09:33:32;7.90;74.00
65034;DHT22;51601;51.356;12.458;2023-02-24T09:38:22;7.50;74.10
65034;DHT22;51601;51.356;12.458;2023-02-24T09:43:29;7.30;75.40
65034;DHT22;51601;51.356;12.458;2023-02-24T09:48:35;7.10;76.90
65034;DHT22;51601;51.356;12.458;2023-02-24T09:53:27;7.20;78.60
65034;DHT22;51601;51.356;12.458;2023-02-24T09:58:27;7.30;78.60
65034;DHT22;51601;51.356;12.458;2023-02-24T10:03:30;7.40;78.00
65034;DHT22;51601;51.356;12.458;2023-02-24T10:08:32;7.40;78.40
65034;DHT22;51601;51.356;12.458;2023-02-24T10:13:22;7.60;78.40
65034;DHT22;51601;51.356;12.458;2023-02-24T10:18:25;7.70;78.50
65034;DHT22;51601;51.356;12.458;2023-02-24T10:23:16;7.80;78.40
65034;DHT22;51601;51.356;12.458;2023-02-24T10:28:21;8.00;79.10
65034;DHT22;51601;51.356;12.458;2023-02-24T10:33:25;8.20;78.90
65034;DHT22;51601;51.356;12.458;2023-02-24T10:38:11;8.40;78.40
65034;DHT22;51601;51.356;12.458;2023-02-24T10:43:04;8.50;78.30
65034;DHT22;51601;51.356;12.458;2023-02-24T10:47:55;8.70;77.80
65034;DHT22;51601;51.356;12.458;2023-02-24T10:52:43;8.90;77.00
65034;DHT22;51601;51.356;12.458;2023-02-24T10:57:53;8.90;75.40
65034;DHT22;51601;51.356;12.458;2023-02-24T11:02:50;8.80;74.10
65034;DHT22;51601;51.356;12.458;2023-02-24T11:08:09;8.70;74.00
65034;DHT22;51601;51.356;12.458;2023-02-24T11:12:59;8.60;74.10
65034;DHT22;51601;51.356;12.458;2023-02-24T11:17:58;8.40;74.20
65034;DHT22;51601;51.356;12.458;2023-02-24T11:22:43;8.30;74.20
65034;DHT22;51601;51.356;12.458;2023-02-24T11:27:32;8.20;74.20
65034;DHT22;51601;51.356;12.458;2023-02-24T11:37:35;8.10;73.90
65034;DHT22;51601;51.356;12.458;2023-02-24T11:42:25;8.20;73.20
65034;DHT22;51601;51.356;12.458;2023-02-24T11:47:15;8.20;72.50
65034;DHT22;51601;51.356;12.458;2023-02-24T11:52:03;8.20;72.10
65034;DHT22;51601;51.356;12.458;2023-02-24T11:56:53;8.10;72.70
65034;DHT22;51601;51.356;12.458;2023-02-24T12:01:44;8.10;72.90
65034;DHT22;51601;51.356;12.458;2023-02-24T12:06:36;8.10;72.70
65034;DHT22;51601;51.356;12.458;2023-02-24T12:11:32;8.00;72.90
65034;DHT22;51601;51.356;12.458;2023-02-24T12:16:21;8.00;73.50
65034;DHT22;51601;51.356;12.458;2023-02-24T12:21:11;8.00;74.00
65034;DHT22;51601;51.356;12.458;2023-02-24T12:26:16;8.10;74.30
65034;DHT22;51601;51.356;12.458;2023-02-24T12:31:09;8.10;73.90
65034;DHT22;51601;51.356;12.458;2023-02-24T12:36:04;8.10;73.20
65034;DHT22;51601;51.356;12.458;2023-02-24T12:41:00;8.00;73.50
65034;DHT22;51601;51.356;12.458;2023-02-24T12:45:52;7.90;74.20
65034;DHT22;51601;51.356;12.458;2023-02-24T12:50:45;7.90;73.40
65034;DHT22;51601;51.356;12.458;2023-02-24T12:55:38;7.90;73.00
65034;DHT22;51601;51.356;12.458;2023-02-24T13:00:32;7.90;72.40
65034;DHT22;51601;51.356;12.458;2023-02-24T13:05:26;7.70;71.80
65034;DHT22;51601;51.356;12.458;2023-02-24T13:10:20;7.70;71.80
65034;DHT22;51601;51.356;12.458;2023-02-24T13:15:19;7.50;71.60
65034;DHT22;51601;51.356;12.458;2023-02-24T13:20:10;7.40;71.80
65034;DHT22;51601;51.356;12.458;2023-02-24T13:25:11;7.30;71.90
65034;DHT22;51601;51.356;12.458;2023-02-24T13:30:04;7.20;72.40
65034;DHT22;51601;51.356;12.458;2023-02-24T13:34:50;7.10;73.00
65034;DHT22;51601;51.356;12.458;2023-02-24T13:39:36;6.90;74.20
65034;DHT22;51601;51.356;12.458;2023-02-24T13:44:24;6.70;75.70
65034;DHT22;51601;51.356;12.458;2023-02-24T13:49:24;6.50;77.50
65034;DHT22;51601;51.356;12.458;2023-02-24T13:54:27;6.30;79.30
65034;DHT22;51601;51.356;12.458;2023-02-24T13:59:31;6.10;81.40
65034;DHT22;51601;51.356;12.458;2023-02-24T14:04:21;5.90;83.80
65034;DHT22;51601;51.356;12.458;2023-02-24T14:09:14;5.80;86.10
65034;DHT22;51601;51.356;12.458;2023-02-24T14:14:04;5.70;88.50
65034;DHT22;51601;51.356;12.458;2023-02-24T14:18:55;5.50;90.10
65034;DHT22;51601;51.356;12.458;2023-02-24T14:23:40;5.40;91.30
65034;DHT22;51601;51.356;12.458;2023-02-24T14:28:34;5.30;92.00
65034;DHT22;51601;51.356;12.458;2023-02-24T14:33:25;5.20;92.70
65034;DHT22;51601;51.356;12.458;2023-02-24T14:38:32;5.10;93.40
65034;DHT22;51601;51.356;12.458;2023-02-24T14:43:19;4.90;94.10
65034;DHT22;51601;51.356;12.458;2023-02-24T14:48:04;4.80;95.30
65034;DHT22;51601;51.356;12.458;2023-02-24T14:52:51;4.80;95.70
65034;DHT22;51601;51.356;12.458;2023-02-24T14:57:42;4.70;96.20
65034;DHT22;51601;51.356;12.458;2023-02-24T15:02:32;4.60;96.70
65034;DHT22;51601;51.356;12.458;2023-02-24T15:07:18;4.60;97.30
65034;DHT22;51601;51.356;12.458;2023-02-24T15:12:19;4.50;97.70
65034;DHT22;51601;51.356;12.458;2023-02-24T15:17:13;4.50;97.90
65034;DHT22;51601;51.356;12.458;2023-02-24T15:21:58;4.40;98.20
65034;DHT22;51601;51.356;12.458;2023-02-24T15:26:51;4.40;98.50
65034;DHT22;51601;51.356;12.458;2023-02-24T15:31:46;4.30;98.80
65034;DHT22;51601;51.356;12.458;2023-02-24T15:36:38;4.20;99.00
65034;DHT22;51601;51.356;12.458;2023-02-24T15:41:38;4.10;99.40
65034;DHT22;51601;51.356;12.458;2023-02-24T15:46:28;4.00;99.80
65034;DHT22;51601;51.356;12.458;2023-02-24T15:51:54;4.00;99.90
65034;DHT22;51601;51.356;12.458;2023-02-24T15:56:44;3.90;99.90
65034;DHT22;51601;51.356;12.458;2023-02-24T16:01:36;3.90;99.90
65034;DHT22;51601;51.356;12.458;2023-02-24T16:06:21;3.80;99.90
65034;DHT22;51601;51.356;12.458;2023-02-24T16:11:21;3.90;99.90
65034;DHT22;51601;51.356;12.458;2023-02-24T16:16:43;3.80;99.90
65034;DHT22;51601;51.356;12.458;2023-02-24T16:21:40;3.80;99.90
65034;DHT22;51601;51.356;12.458;2023-02-24T16:26:26;3.80;99.90
65034;DHT22;51601;51.356;12.458;2023-02-24T16:31:12;3.80;99.90
65034;DHT22;51601;51.356;12.458;2023-02-24T16:35:57;3.70;99.90
65034;DHT22;51601;51.356;12.458;2023-02-24T16:40:43;3.70;99.90
65034;DHT22;51601;51.356;12.458;2023-02-24T16:45:44;3.60;99.90
65034;DHT22;51601;51.356;12.458;2023-02-24T16:50:35;3.60;99.90
65034;DHT22;51601;51.356;12.458;2023-02-24T16:55:21;3.60;99.90
65034;DHT22;51601;51.356;12.458;2023-02-24T17:00:07;3.50;99.90
65034;DHT22;51601;51.356;12.458;2023-02-24T17:04:52;3.50;99.90
65034;DHT22;51601;51.356;12.458;2023-02-24T17:09:36;3.50;99.90
65034;DHT22;51601;51.356;12.458;2023-02-24T17:14:21;3.50;99.90
65034;DHT22;51601;51.356;12.458;2023-02-24T17:19:05;3.40;99.90
65034;DHT22;51601;51.356;12.458;2023-02-24T17:23:51;3.40;99.90
65034;DHT22;51601;51.356;12.458;2023-02-24T17:28:35;3.40;99.90
65034;DHT22;51601;51.356;12.458;2023-02-24T17:33:19;3.40;99.90
65034;DHT22;51601;51.356;12.458;2023-02-24T17:38:04;3.30;99.90
65034;DHT22;51601;51.356;12.458;2023-02-24T17:42:53;3.30;99.90
65034;DHT22;51601;51.356;12.458;2023-02-24T17:47:38;3.20;99.90
65034;DHT22;51601;51.356;12.458;2023-02-24T17:52:23;3.20;99.90
65034;DHT22;51601;51.356;12.458;2023-02-24T17:57:07;3.10;99.90
65034;DHT22;51601;51.356;12.458;2023-02-24T18:01:53;3.10;99.90
65034;DHT22;51601;51.356;12.458;2023-02-24T18:06:38;3.10;99.90
65034;DHT22;51601;51.356;12.458;2023-02-24T18:11:22;3.10;99.90
65034;DHT22;51601;51.356;12.458;2023-02-24T18:16:07;3.20;99.90
65034;DHT22;51601;51.356;12.458;2023-02-24T18:20:59;3.20;99.90
65034;DHT22;51601;51.356;12.458;2023-02-24T18:25:46;3.30;99.90
65034;DHT22;51601;51.356;12.458;2023-02-24T18:30:30;3.30;99.90
65034;DHT22;51601;51.356;12.458;2023-02-24T18:35:15;3.30;99.90
65034;DHT22;51601;51.356;12.458;2023-02-24T18:40:06;3.40;99.90
65034;DHT22;51601;51.356;12.458;2023-02-24T18:44:50;3.50;99.90
65034;DHT22;51601;51.356;12.458;2023-02-24T18:49:35;3.50;99.90
65034;DHT22;51601;51.356;12.458;2023-02-24T18:54:19;3.60;99.90
65034;DHT22;51601;51.356;12.458;2023-02-24T18:59:05;3.60;99.90
65034;DHT22;51601;51.356;12.458;2023-02-24T19:03:50;3.70;99.90
65034;DHT22;51601;51.356;12.458;2023-02-24T19:08:36;3.70;99.90
65034;DHT22;51601;51.356;12.458;2023-02-24T19:13:20;3.70;99.90
65034;DHT22;51601;51.356;12.458;2023-02-24T19:18:07;3.80;99.90
65034;DHT22;51601;51.356;12.458;2023-02-24T19:22:49;3.80;99.90
65034;DHT22;51601;51.356;12.458;2023-02-24T19:27:27;3.80;99.90
65034;DHT22;51601;51.356;12.458;2023-02-24T19:32:12;3.80;99.90
65034;DHT22;51601;51.356;12.458;2023-02-24T19:36:58;3.80;99.90
65034;DHT22;51601;51.356;12.458;2023-02-24T19:41:42;3.90;99.90
65034;DHT22;51601;51.356;12.458;2023-02-24T19:46:28;3.90;99.90
65034;DHT22;51601;51.356;12.458;2023-02-24T19:51:16;3.90;99.90
65034;DHT22;51601;51.356;12.458;2023-02-24T19:56:04;3.90;99.90
65034;DHT22;51601;51.356;12.458;2023-02-24T20:00:48;3.80;99.90
65034;DHT22;51601;51.356;12.458;2023-02-24T20:05:34;3.80;99.90
65034;DHT22;51601;51.356;12.458;2023-02-24T20:10:18;3.70;99.90
65034;DHT22;51601;51.356;12.458;2023-02-24T20:15:07;3.60;99.90
65034;DHT22;51601;51.356;12.458;2023-02-24T20:19:52;3.60;99.90
65034;DHT22;51601;51.356;12.458;2023-02-24T20:24:36;3.60;99.90
65034;DHT22;51601;51.356;12.458;2023-02-24T20:29:21;3.60;99.90
65034;DHT22;51601;51.356;12.458;2023-02-24T20:34:07;3.60;99.90
65034;DHT22;51601;51.356;12.458;2023-02-24T20:38:53;3.70;99.90
65034;DHT22;51601;51.356;12.458;2023-02-24T20:43:38;3.80;99.90
65034;DHT22;51601;51.356;12.458;2023-02-24T20:48:22;3.80;99.90
65034;DHT22;51601;51.356;12.458;2023-02-24T20:53:11;3.80;99.90
65034;DHT22;51601;51.356;12.458;2023-02-24T20:57:55;3.90;99.90
65034;DHT22;51601;51.356;12.458;2023-02-24T21:02:41;3.90;99.90
65034;DHT22;51601;51.356;12.458;2023-02-24T21:07:26;4.00;99.90
65034;DHT22;51601;51.356;12.458;2023-02-24T21:12:11;4.00;99.90
65034;DHT22;51601;51.356;12.458;2023-02-24T21:19:59;4.00;99.90
65034;DHT22;51601;51.356;12.458;2023-02-24T21:24:44;4.10;99.90
65034;DHT22;51601;51.356;12.458;2023-02-24T21:29:28;4.10;99.90
65034;DHT22;51601;51.356;12.458;2023-02-24T21:34:13;4.10;99.90
65034;DHT22;51601;51.356;12.458;2023-02-24T21:38:59;4.20;99.90
65034;DHT22;51601;51.356;12.458;2023-02-24T21:43:44;4.20;99.90
65034;DHT22;51601;51.356;12.458;2023-02-24T21:48:30;4.20;99.90
65034;DHT22;51601;51.356;12.458;2023-02-24T21:53:14;4.30;99.90
65034;DHT22;51601;51.356;12.458;2023-02-24T21:58:00;4.30;99.90
65034;DHT22;51601;51.356;12.458;2023-02-24T22:02:45;4.30;99.90
65034;DHT22;51601;51.356;12.458;2023-02-24T22:07:29;4.30;99.90
65034;DHT22;51601;51.356;12.458;2023-02-24T22:12:13;4.30;99.90
65034;DHT22;51601;51.356;12.458;2023-02-24T22:16:59;4.20;99.90
65034;DHT22;51601;51.356;12.458;2023-02-24T22:21:43;4.20;99.90
65034;DHT22;51601;51.356;12.458;2023-02-24T22:26:28;4.20;99.90
65034;DHT22;51601;51.356;12.458;2023-02-24T22:31:15;4.20;99.90
65034;DHT22;51601;51.356;12.458;2023-02-24T22:36:02;4.20;99.90
65034;DHT22;51601;51.356;12.458;2023-02-24T22:40:58;4.20;99.90
65034;DHT22;51601;51.356;12.458;2023-02-24T22:45:42;4.20;99.90
65034;DHT22;51601;51.356;12.458;2023-02-24T22:50:26;4.10;99.90
65034;DHT22;51601;51.356;12.458;2023-02-24T22:55:12;4.10;99.90
65034;DHT22;51601;51.356;12.458;2023-02-24T22:59:56;4.10;99.90
65034;DHT22;51601;51.356;12.458;2023-02-24T23:04:41;4.10;99.90
65034;DHT22;51601;51.356;12.458;2023-02-24T23:09:25;4.10;99.90
65034;DHT22;51601;51.356;12.458;2023-02-24T23:14:13;4.00;99.90
65034;DHT22;51601;51.356;12.458;2023-02-24T23:19:00;4.00;99.90
65034;DHT22;51601;51.356;12.458;2023-02-24T23:23:46;4.00;99.90
65034;DHT22;51601;51.356;12.458;2023-02-24T23:28:30;4.00;99.90
65034;DHT22;51601;51.356;12.458;2023-02-24T23:33:16;3.90;99.90
65034;DHT22;51601;51.356;12.458;2023-02-24T23:38:00;3.90;99.90
65034;DHT22;51601;51.356;12.458;2023-02-24T23:42:45;3.80;99.90
65034;DHT22;51601;51.356;12.458;2023-02-24T23:47:29;3.70;99.90
65034;DHT22;51601;51.356;12.458;2023-02-24T23:52:15;3.60;99.90
65034;DHT22;51601;51.356;12.458;2023-02-24T23:56:59;3.50;99.90
